createdAt,value
2022-11-28T00:04:14.323Z,3.32
2022-11-28T00:09:17.492Z,3.33
2022-11-28T00:14:20.499Z,3.34
2022-11-28T00:19:22.139Z,3.31
2022-11-28T00:24:23.846Z,3.29
2022-11-28T00:29:25.556Z,3.31
2022-11-28T00:34:27.223Z,3.32
2022-11-28T00:39:28.927Z,3.27
2022-11-28T00:44:30.594Z,3.27
2022-11-28T00:49:32.314Z,3.23
2022-11-28T00:54:34.479Z,3.23
2022-11-28T00:59:36.167Z,3.24
2022-11-28T01:04:37.841Z,3.22
2022-11-28T01:09:39.452Z,3.21
2022-11-28T01:14:41.381Z,3.22
2022-11-28T01:19:43.248Z,3.24
2022-11-28T01:24:45.045Z,3.29
2022-11-28T01:29:46.868Z,3.26
2022-11-28T01:34:48.607Z,3.23
2022-11-28T01:39:50.268Z,3.24
2022-11-28T01:44:54.881Z,3.21
2022-11-28T01:49:56.657Z,3.16
2022-11-28T01:55:00.420Z,3.14
2022-11-28T02:00:13.005Z,3.12
2022-11-28T02:05:16.719Z,3.08
2022-11-28T02:10:23.019Z,3.07
2022-11-28T02:15:37.765Z,3.07
2022-11-28T02:21:03.278Z,3.05
2022-11-28T02:26:27.890Z,3.02
2022-11-28T02:31:33.639Z,3.04
2022-11-28T02:36:43.953Z,3.01
2022-11-28T02:42:00.474Z,3.00
2022-11-28T02:47:18.706Z,2.96
2022-11-28T02:52:23.788Z,2.97
2022-11-28T02:57:40.082Z,2.98
2022-11-28T03:02:42.806Z,2.96
2022-11-28T03:08:03.821Z,2.96
2022-11-28T03:13:31.969Z,2.95
2022-11-28T03:18:44.736Z,2.93
2022-11-28T03:23:54.992Z,2.86
2022-11-28T03:29:11.854Z,2.85
2022-11-28T03:34:17.912Z,2.82
2022-11-28T03:39:22.767Z,2.78
2022-11-28T03:44:28.627Z,2.71
2022-11-28T03:49:37.583Z,2.68
2022-11-28T03:54:58.916Z,2.62
2022-11-28T04:00:04.616Z,2.54
2022-11-28T04:05:34.577Z,2.54
2022-11-28T04:10:43.397Z,2.48
2022-11-28T04:16:04.836Z,2.46
2022-11-28T04:21:14.238Z,2.46
2022-11-28T04:26:23.554Z,2.47
2022-11-28T04:31:26.304Z,2.49
2022-11-28T04:36:29.092Z,2.48
2022-11-28T04:41:35.699Z,2.48
2022-11-28T04:46:42.102Z,2.51
2022-11-28T04:52:15.312Z,2.51
2022-11-28T04:57:33.592Z,2.54
2022-11-28T05:02:36.096Z,2.58
2022-11-28T05:07:37.881Z,2.62
2022-11-28T05:12:39.773Z,2.64
2022-11-28T05:17:42.661Z,2.68
2022-11-28T05:22:44.360Z,2.70
2022-11-28T05:27:45.969Z,2.78
2022-11-28T05:32:47.781Z,2.80
2022-11-28T05:37:49.412Z,2.85
2022-11-28T05:42:51.084Z,2.88
2022-11-28T05:47:52.738Z,2.88
2022-11-28T05:52:54.378Z,2.92
2022-11-28T05:57:56.444Z,2.94
2022-11-28T06:03:01.499Z,2.94
2022-11-28T06:08:03.562Z,2.97
2022-11-28T06:13:05.539Z,3.01
2022-11-28T06:18:07.437Z,3.03
2022-11-28T06:23:09.080Z,3.05
2022-11-28T06:28:10.812Z,3.11
2022-11-28T06:33:12.442Z,3.18
2022-11-28T06:38:14.533Z,3.22
2022-11-28T06:43:16.277Z,3.29
2022-11-28T06:48:17.968Z,3.29
2022-11-28T06:53:20.078Z,3.31
2022-11-28T06:58:21.706Z,3.41
2022-11-28T07:03:23.614Z,3.42
2022-11-28T07:08:25.316Z,3.46
2022-11-28T07:13:27.003Z,3.48
2022-11-28T07:18:28.653Z,3.52
2022-11-28T07:23:30.269Z,3.56
2022-11-28T07:28:32.934Z,3.60
2022-11-28T07:33:35.022Z,3.62
2022-11-28T07:38:36.742Z,3.67
2022-11-28T07:43:38.909Z,3.69
2022-11-28T07:48:40.702Z,3.72
2022-11-28T07:53:42.986Z,3.74
2022-11-28T07:58:45.879Z,3.76
2022-11-28T08:03:47.954Z,3.79
2022-11-28T08:08:50.108Z,3.83
2022-11-28T08:13:54.978Z,3.85
2022-11-28T08:19:03.302Z,3.89
2022-11-28T08:24:05.716Z,3.95
2022-11-28T08:29:07.393Z,3.98
2022-11-28T08:34:10.708Z,4.02
2022-11-28T08:39:27.813Z,4.06
2022-11-28T08:44:30.718Z,4.09
2022-11-28T08:49:32.741Z,4.11
2022-11-28T08:54:34.366Z,4.11
2022-11-28T08:59:36.239Z,4.19
2022-11-28T09:04:38.075Z,4.23
2022-11-28T09:09:39.732Z,4.35
2022-11-28T09:14:41.422Z,4.35
2022-11-28T09:19:43.339Z,4.42
2022-11-28T09:24:45.160Z,4.49
2022-11-28T09:29:46.787Z,4.50
2022-11-28T09:34:48.474Z,4.56
2022-11-28T09:40:12.129Z,4.60
2022-11-28T09:45:20.320Z,4.65
2022-11-28T09:50:28.858Z,4.64
2022-11-28T09:55:38.505Z,4.60
2022-11-28T10:00:52.643Z,4.64
2022-11-28T10:06:05.102Z,4.55
2022-11-28T10:11:23.101Z,4.59
2022-11-28T10:16:48.782Z,4.55
2022-11-28T10:21:59.308Z,4.67
2022-11-28T10:27:04.664Z,4.73
2022-11-28T10:32:06.791Z,4.82
2022-11-28T10:37:19.963Z,4.85
2022-11-28T10:42:50.510Z,4.84
2022-11-28T10:48:38.452Z,4.82
2022-11-28T10:53:41.853Z,4.90
2022-11-28T10:58:49.326Z,4.88
2022-11-28T11:03:50.966Z,4.91
2022-11-28T11:08:53.063Z,4.93
2022-11-28T11:14:09.311Z,4.99
2022-11-28T11:19:23.699Z,5.04
2022-11-28T11:24:25.334Z,5.13
2022-11-28T11:29:35.362Z,5.08
2022-11-28T11:34:43.202Z,5.07
2022-11-28T11:39:52.591Z,5.16
2022-11-28T11:44:54.531Z,5.20
2022-11-28T11:50:03.781Z,5.10
2022-11-28T11:55:12.524Z,5.14
2022-11-28T12:00:18.496Z,5.10
2022-11-28T12:05:28.354Z,5.27
2022-11-28T12:10:34.472Z,5.22
2022-11-28T12:15:48.306Z,5.25
2022-11-28T12:21:02.302Z,5.25
2022-11-28T12:26:22.200Z,5.32
2022-11-28T12:31:42.729Z,5.43
2022-11-28T12:37:03.122Z,5.36
2022-11-28T12:42:13.718Z,5.37
2022-11-28T12:47:51.520Z,5.32
2022-11-28T12:53:05.285Z,5.24
2022-11-28T12:58:18.989Z,5.24
2022-11-28T13:03:58.332Z,5.23
2022-11-28T13:09:02.961Z,5.29
2022-11-28T13:14:10.685Z,5.24
2022-11-28T13:19:27.035Z,5.25
2022-11-28T13:24:36.926Z,5.20
2022-11-28T13:30:03.585Z,5.18
2022-11-28T13:35:08.335Z,5.13
2022-11-28T13:40:28.347Z,5.11
2022-11-28T13:45:35.070Z,5.07
2022-11-28T13:50:39.339Z,5.03
2022-11-28T13:55:46.839Z,4.97
2022-11-28T14:01:18.968Z,4.94
2022-11-28T14:06:28.080Z,4.88
2022-11-28T14:11:51.051Z,4.85
2022-11-28T14:17:14.301Z,4.75
2022-11-28T14:22:41.252Z,4.75
2022-11-28T14:27:54.495Z,4.70
2022-11-28T14:33:02.518Z,4.68
2022-11-28T14:38:29.908Z,4.62
2022-11-28T14:43:44.710Z,4.61
2022-11-28T14:48:58.803Z,4.61
2022-11-28T14:54:00.558Z,4.61
2022-11-28T14:59:03.743Z,4.61
2022-11-28T15:04:37.824Z,4.65
2022-11-28T15:09:57.729Z,4.65
2022-11-28T15:14:59.483Z,4.63
2022-11-28T15:20:06.071Z,4.65
2022-11-28T15:25:22.079Z,4.64
2022-11-28T15:30:26.569Z,4.65
2022-11-28T15:35:28.834Z,4.64
2022-11-28T15:40:35.717Z,4.63
2022-11-28T15:45:39.930Z,4.63
2022-11-28T15:50:50.164Z,4.63
2022-11-28T15:56:08.634Z,4.62
2022-11-28T16:01:20.657Z,4.61
2022-11-28T16:06:24.691Z,4.62
2022-11-28T16:11:28.546Z,4.62
2022-11-28T16:16:32.010Z,4.65
2022-11-28T16:21:55.519Z,4.64
2022-11-28T16:27:02.463Z,4.67
2022-11-28T16:32:19.565Z,4.67
2022-11-28T16:37:26.909Z,4.66
2022-11-28T16:42:29.094Z,4.67
2022-11-28T16:47:33.063Z,4.68
2022-11-28T16:52:48.598Z,4.66
2022-11-28T16:57:55.410Z,4.66
2022-11-28T17:02:57.158Z,4.66
2022-11-28T17:08:01.444Z,4.68
2022-11-28T17:13:03.112Z,4.65
2022-11-28T17:18:04.815Z,4.63
2022-11-28T17:23:06.501Z,4.65
2022-11-28T17:28:09.149Z,4.64
2022-11-28T17:33:19.909Z,4.64
2022-11-28T17:38:21.533Z,4.65
2022-11-28T17:43:23.524Z,4.63
2022-11-28T17:48:25.220Z,4.67
2022-11-28T17:53:27.541Z,4.69
2022-11-28T17:58:29.319Z,4.74
2022-11-28T18:03:31.360Z,4.74
2022-11-28T18:08:33.119Z,4.76
2022-11-28T18:13:35.145Z,4.78
2022-11-28T18:18:38.056Z,4.78
2022-11-28T18:23:41.864Z,4.79
2022-11-28T18:28:45.374Z,4.81
2022-11-28T18:33:47.335Z,4.79
2022-11-28T18:38:54.125Z,4.78
2022-11-28T18:43:57.023Z,4.78
2022-11-28T18:48:58.724Z,4.78
2022-11-28T18:54:04.260Z,4.74
2022-11-28T18:59:07.242Z,4.71
2022-11-28T19:04:15.624Z,4.73
2022-11-28T19:09:19.068Z,4.75
2022-11-28T19:14:21.536Z,4.82
2022-11-28T19:19:23.765Z,4.84
2022-11-28T19:24:27.592Z,4.87
2022-11-28T19:29:29.323Z,4.84
2022-11-28T19:34:31.247Z,4.81
2022-11-28T19:39:32.937Z,4.81
2022-11-28T19:44:34.855Z,4.78
2022-11-28T19:49:36.824Z,4.72
2022-11-28T19:54:38.551Z,4.68
2022-11-28T19:59:40.242Z,4.63
2022-11-28T20:04:43.473Z,4.60
2022-11-28T20:09:45.699Z,4.55
2022-11-28T20:14:47.769Z,4.49
2022-11-28T20:19:49.504Z,4.48
2022-11-28T20:24:51.377Z,4.47
2022-11-28T20:29:53.117Z,4.47
2022-11-28T20:34:54.841Z,4.50
2022-11-28T20:39:57.721Z,4.50
2022-11-28T20:44:59.365Z,4.51
2022-11-28T20:50:01.242Z,4.56
2022-11-28T20:55:02.924Z,4.58
2022-11-28T21:00:05.343Z,4.59
2022-11-28T21:05:07.280Z,4.61
2022-11-28T21:10:09.139Z,4.63
2022-11-28T21:15:10.960Z,4.65
2022-11-28T21:20:12.889Z,4.65
2022-11-28T21:25:14.942Z,4.67
2022-11-28T21:30:16.645Z,4.72
2022-11-28T21:35:18.334Z,4.71
2022-11-28T21:40:20.003Z,4.74
2022-11-28T21:45:23.863Z,4.76
2022-11-28T21:50:25.667Z,4.80
2022-11-28T21:55:27.952Z,4.80
2022-11-28T22:00:52.276Z,4.80
2022-11-28T22:05:54.769Z,4.83
2022-11-28T22:11:01.049Z,4.81
2022-11-28T22:16:21.350Z,4.83
2022-11-28T22:26:45.172Z,4.78
2022-11-28T22:31:47.949Z,4.76
2022-11-28T22:36:49.635Z,4.77
2022-11-28T22:41:51.334Z,4.77
2022-11-28T22:46:54.571Z,4.78
2022-11-28T22:51:56.294Z,4.80
2022-11-28T22:56:58.219Z,4.81
2022-11-28T23:02:01.214Z,4.81
2022-11-28T23:07:02.952Z,4.84
2022-11-28T23:12:05.313Z,4.85
2022-11-28T23:17:07.060Z,4.85
2022-11-28T23:22:08.662Z,4.87
2022-11-28T23:27:10.579Z,4.87
2022-11-28T23:32:14.065Z,4.83
2022-11-28T23:37:15.767Z,4.82
2022-11-28T23:42:17.355Z,4.81
2022-11-28T23:47:18.983Z,4.80
2022-11-28T23:52:20.651Z,4.80
2022-11-28T23:57:22.519Z,4.82
